Cornucopia Destiny — WDE6386 — position and weather

sailwx.info

Track history (hours):
 
Tides and Currents Weather Stations Pressure Air Temp Water Temp Dewpoint Dewpoint Depression Visibility Wind Speed Wind Dir Waves Ship Positions

Cornucopia Destiny

Owner: Sultan Wholesale LLC, Keyport, NJ. More information available from US FCC via Universal Licensing System and Coast Guard Vessel Documentation Center.

Last reported at 2015-May-24 02:34 UTC. Time now 2015-May-24 03:16 UTC.
Position N 40°46' W 074°01'.

Length 39 m.

Type: Passenger vessel. MMSI: 367379570.

Date/timePositionNaut miles runAvg speedWind from/ knotsBaromVisibWave heightAir tempDewpointWater temp
2015-May-24 02:34N 40°46' W 074°01'2 1.9
2015-May-24 01:34N 40°44' W 074°01'1 0.2
2015-May-23 19:33N 40°45' W 074°01'0 0.0
2015-May-23 18:33N 40°45' W 074°01'0 0.0
2015-May-23 17:33N 40°45' W 074°01'0 0.0
2015-May-23 16:33N 40°45' W 074°01'0 0.0
2015-May-23 15:33N 40°45' W 074°01'0 0.0
2015-May-23 04:33N 40°45' W 074°01'0 0.0
2015-May-23 03:33N 40°45' W 074°01'3 2.8
2015-May-23 02:33N 40°42' W 074°02'1 1.4
2015-May-23 01:33N 40°42' W 073°60'1 0.6
2015-May-23 00:33N 40°42' W 074°01'3 3.4
2015-May-22 23:33N 40°45' W 074°01'0 0.4
2015-May-22 22:33N 40°45' W 074°01'0 0.0
2015-May-22 21:33N 40°45' W 074°01'0 0.0
2015-May-22 20:34N 40°45' W 074°01'0 0.0
2015-May-22 19:34N 40°45' W 074°01'0 0.0
2015-May-22 18:34N 40°45' W 074°01'0 0.0
2015-May-22 17:34N 40°45' W 074°01'0 0.0
2015-May-22 16:34N 40°45' W 074°01'0 0.0
2015-May-22 15:33N 40°45' W 074°01'0 0.0
2015-May-21 21:26N 40°45' W 074°01'0 0.0
2015-May-21 19:31N 40°45' W 074°01'0 0.0
2015-May-21 15:33N 40°45' W 074°01'0 0.0
2015-May-20 19:12N 40°45' W 074°01'0 0.0
2015-May-19 20:16N 40°45' W 074°01'0 0.0
2015-May-19 19:33N 40°45' W 074°01'0 0.0
2015-May-19 18:33N 40°45' W 074°01'0 0.0
2015-May-19 02:33N 40°45' W 074°01'0 0.0
2015-May-19 01:33N 40°45' W 074°01'4 3.9
2015-May-19 00:33N 40°41' W 074°02'4 3.7
2015-May-18 23:33N 40°43' W 073°58'3 2.9
2015-May-18 22:33N 40°45' W 074°01'1 0.6
2015-May-18 21:33N 40°45' W 074°01'0 0.0
2015-May-18 20:33N 40°45' W 074°01'0 0.0
2015-May-18 19:34N 40°45' W 074°01'0 0.0
2015-May-18 18:33N 40°45' W 074°01'0 0.0
2015-May-18 17:33N 40°45' W 074°01'0 0.0
2015-May-18 16:33N 40°45' W 074°01'0 0.0
2015-May-18 15:34N 40°45' W 074°01'167883.6
2015-May-17 19:30N 68°43' W 074°01'16781781.1
2015-May-17 18:33N 40°45' W 074°01'0 0.0
2015-May-17 17:33N 40°45' W 074°01'0 0.0
2015-May-17 16:33N 40°45' W 074°01'0 0.0
2015-May-17 15:33N 40°45' W 074°01'0 0.0
2015-May-17 14:33N 40°45' W 074°01'0 0.0
2015-May-17 05:04N 40°45' W 074°01'0 0.0
2015-May-17 04:33N 40°45' W 074°01'1 0.6
2015-May-17 03:33N 40°45' W 074°01'1 1.1
2015-May-17 02:33N 40°44' W 074°01'3 2.8
2015-May-17 01:33N 40°41' W 074°01'1 1.3
2015-May-17 00:33N 40°42' W 074°00'4 3.6
2015-May-16 23:33N 40°46' W 074°01'1 0.8
2015-May-16 22:33N 40°45' W 074°01'0 0.0
2015-May-16 21:33N 40°45' W 074°01'1 0.7
2015-May-16 20:33N 40°45' W 074°01'0 0.0
2015-May-16 19:33N 40°45' W 074°01'0 0.0
2015-May-16 18:33N 40°45' W 074°01'0 0.0
2015-May-16 17:33N 40°45' W 074°01'0 0.0
2015-May-16 16:33N 40°45' W 074°01'0 0.0
2015-May-16 15:33N 40°45' W 074°01'0 0.0
2015-May-15 21:16N 40°45' W 074°01'0 0.0
2015-May-15 20:33N 40°45' W 074°01'0 0.0
2015-May-15 19:33N 40°45' W 074°01'0 0.0
2015-May-15 18:33N 40°45' W 074°01'0 0.0
2015-May-15 17:33N 40°45' W 074°01'0 0.0
2015-May-15 16:33N 40°45' W 074°01'0 0.0
2015-May-15 05:19N 40°45' W 074°01'0 0.0
2015-May-15 04:33N 40°45' W 074°01'1 0.6
2015-May-15 03:33N 40°45' W 074°01'4 3.7
2015-May-15 02:33N 40°41' W 074°02'4 3.9
2015-May-15 01:33N 40°44' W 073°58'3 2.5
2015-May-15 00:33N 40°44' W 074°01'1 0.9
2015-May-14 23:33N 40°45' W 074°01'0 0.0
2015-May-14 22:33N 40°45' W 074°01'1 0.6
2015-May-14 21:33N 40°45' W 074°01'0 0.0
2015-May-14 20:34N 40°45' W 074°01'0 0.0
2015-May-14 19:34N 40°45' W 074°01'0 0.0
2015-May-14 18:33N 40°45' W 074°01'  
Track history (hours):
 
Tides and Currents Weather Stations Pressure Air Temp Water Temp Dewpoint Dewpoint Depression Visibility Wind Speed Wind Dir Waves Ship Positions

Cornucopia Destiny

Owner: Sultan Wholesale LLC, Keyport, NJ. More information available from US FCC via Universal Licensing System and Coast Guard Vessel Documentation Center.

Last reported at 2015-May-24 02:34 UTC. Time now 2015-May-24 03:16 UTC.
Position N 40°46' W 074°01'.

Length 39 m.

Type: Passenger vessel. MMSI: 367379570.

Date/timePositionNaut miles runAvg speedWind from/ knotsBaromVisibWave heightAir tempDewpointWater temp
2015-May-24 02:34N 40°46' W 074°01'2 1.9
2015-May-24 01:34N 40°44' W 074°01'1 0.2
2015-May-23 19:33N 40°45' W 074°01'0 0.0
2015-May-23 18:33N 40°45' W 074°01'0 0.0
2015-May-23 17:33N 40°45' W 074°01'0 0.0
2015-May-23 16:33N 40°45' W 074°01'0 0.0
2015-May-23 15:33N 40°45' W 074°01'0 0.0
2015-May-23 04:33N 40°45' W 074°01'0 0.0
2015-May-23 03:33N 40°45' W 074°01'3 2.8
2015-May-23 02:33N 40°42' W 074°02'1 1.4
2015-May-23 01:33N 40°42' W 073°60'1 0.6
2015-May-23 00:33N 40°42' W 074°01'3 3.4
2015-May-22 23:33N 40°45' W 074°01'0 0.4
2015-May-22 22:33N 40°45' W 074°01'0 0.0
2015-May-22 21:33N 40°45' W 074°01'0 0.0
2015-May-22 20:34N 40°45' W 074°01'0 0.0
2015-May-22 19:34N 40°45' W 074°01'0 0.0
2015-May-22 18:34N 40°45' W 074°01'0 0.0
2015-May-22 17:34N 40°45' W 074°01'0 0.0
2015-May-22 16:34N 40°45' W 074°01'0 0.0
2015-May-22 15:33N 40°45' W 074°01'0 0.0
2015-May-21 21:26N 40°45' W 074°01'0 0.0
2015-May-21 19:31N 40°45' W 074°01'0 0.0
2015-May-21 15:33N 40°45' W 074°01'0 0.0
2015-May-20 19:12N 40°45' W 074°01'0 0.0
2015-May-19 20:16N 40°45' W 074°01'0 0.0
2015-May-19 19:33N 40°45' W 074°01'0 0.0
2015-May-19 18:33N 40°45' W 074°01'0 0.0
2015-May-19 02:33N 40°45' W 074°01'0 0.0
2015-May-19 01:33N 40°45' W 074°01'4 3.9
2015-May-19 00:33N 40°41' W 074°02'4 3.7
2015-May-18 23:33N 40°43' W 073°58'3 2.9
2015-May-18 22:33N 40°45' W 074°01'1 0.6
2015-May-18 21:33N 40°45' W 074°01'0 0.0
2015-May-18 20:33N 40°45' W 074°01'0 0.0
2015-May-18 19:34N 40°45' W 074°01'0 0.0
2015-May-18 18:33N 40°45' W 074°01'0 0.0
2015-May-18 17:33N 40°45' W 074°01'0 0.0
2015-May-18 16:33N 40°45' W 074°01'0 0.0
2015-May-18 15:34N 40°45' W 074°01'167883.6
2015-May-17 19:30N 68°43' W 074°01'16781781.1
2015-May-17 18:33N 40°45' W 074°01'0 0.0
2015-May-17 17:33N 40°45' W 074°01'0 0.0
2015-May-17 16:33N 40°45' W 074°01'0 0.0
2015-May-17 15:33N 40°45' W 074°01'0 0.0
2015-May-17 14:33N 40°45' W 074°01'0 0.0
2015-May-17 05:04N 40°45' W 074°01'0 0.0
2015-May-17 04:33N 40°45' W 074°01'1 0.6
2015-May-17 03:33N 40°45' W 074°01'1 1.1
2015-May-17 02:33N 40°44' W 074°01'3 2.8
2015-May-17 01:33N 40°41' W 074°01'1 1.3
2015-May-17 00:33N 40°42' W 074°00'4 3.6
2015-May-16 23:33N 40°46' W 074°01'1 0.8
2015-May-16 22:33N 40°45' W 074°01'0 0.0
2015-May-16 21:33N 40°45' W 074°01'1 0.7
2015-May-16 20:33N 40°45' W 074°01'0 0.0
2015-May-16 19:33N 40°45' W 074°01'0 0.0
2015-May-16 18:33N 40°45' W 074°01'0 0.0
2015-May-16 17:33N 40°45' W 074°01'0 0.0
2015-May-16 16:33N 40°45' W 074°01'0 0.0
2015-May-16 15:33N 40°45' W 074°01'0 0.0
2015-May-15 21:16N 40°45' W 074°01'0 0.0
2015-May-15 20:33N 40°45' W 074°01'0 0.0
2015-May-15 19:33N 40°45' W 074°01'0 0.0
2015-May-15 18:33N 40°45' W 074°01'0 0.0
2015-May-15 17:33N 40°45' W 074°01'0 0.0
2015-May-15 16:33N 40°45' W 074°01'0 0.0
2015-May-15 05:19N 40°45' W 074°01'0 0.0
2015-May-15 04:33N 40°45' W 074°01'1 0.6
2015-May-15 03:33N 40°45' W 074°01'4 3.7
2015-May-15 02:33N 40°41' W 074°02'4 3.9
2015-May-15 01:33N 40°44' W 073°58'3 2.5
2015-May-15 00:33N 40°44' W 074°01'1 0.9
2015-May-14 23:33N 40°45' W 074°01'0 0.0
2015-May-14 22:33N 40°45' W 074°01'1 0.6
2015-May-14 21:33N 40°45' W 074°01'0 0.0
2015-May-14 20:34N 40°45' W 074°01'0 0.0
2015-May-14 19:34N 40°45' W 074°01'0 0.0
2015-May-14 18:33N 40°45' W 074°01'  

Dump ship's entire track history